createdAt,value
2023-05-18T00:01:44.791Z,2.93
2023-05-18T00:04:11.841Z,3.00
2023-05-18T00:06:39.008Z,2.97
2023-05-18T00:09:06.346Z,2.90
2023-05-18T00:11:34.704Z,3.03
2023-05-18T00:14:03.253Z,3.00
2023-05-18T00:16:30.425Z,3.10
2023-05-18T00:18:57.632Z,3.00
2023-05-18T00:21:30.503Z,3.00
2023-05-18T00:23:58.400Z,3.00
2023-05-18T00:26:26.619Z,2.97
2023-05-18T00:28:54.552Z,3.07
2023-05-18T00:31:21.656Z,3.00
2023-05-18T00:33:48.740Z,3.07
2023-05-18T00:36:15.895Z,2.90
2023-05-18T00:38:43.434Z,2.93
2023-05-18T00:41:10.903Z,3.00
2023-05-18T00:43:42.954Z,2.87
2023-05-18T00:46:11.542Z,2.97
2023-05-18T00:48:39.011Z,3.00
2023-05-18T00:51:06.541Z,2.90
2023-05-18T00:53:34.099Z,3.07
2023-05-18T00:56:01.161Z,3.00
2023-05-18T00:58:28.486Z,3.03
2023-05-18T01:00:58.239Z,3.00
2023-05-18T01:03:26.318Z,3.00
2023-05-18T01:05:57.907Z,2.87
2023-05-18T01:08:27.652Z,2.90
2023-05-18T01:11:09.317Z,2.97
2023-05-18T01:14:23.893Z,2.90
2023-05-18T01:17:54.945Z,2.90
2023-05-18T01:20:49.414Z,2.90
2023-05-18T01:24:11.589Z,2.90
2023-05-18T01:26:45.292Z,3.00
2023-05-18T01:29:15.393Z,3.00
2023-05-18T01:31:42.957Z,3.00
2023-05-18T01:34:10.429Z,2.97
2023-05-18T01:36:37.432Z,2.97
2023-05-18T01:39:05.331Z,3.00
2023-05-18T01:41:36.444Z,3.00
2023-05-18T01:44:32.816Z,2.93
2023-05-18T01:47:14.378Z,2.90
2023-05-18T01:50:00.431Z,2.97
2023-05-18T01:52:47.526Z,3.00
2023-05-18T01:55:18.097Z,2.90
2023-05-18T01:57:48.595Z,3.00
2023-05-18T02:00:18.628Z,2.93
2023-05-18T02:02:47.468Z,2.90
2023-05-18T02:05:17.368Z,2.93
2023-05-18T02:07:47.283Z,3.07
2023-05-18T02:10:15.004Z,3.03
2023-05-18T02:12:42.317Z,3.00
2023-05-18T02:15:10.497Z,3.00
2023-05-18T02:17:39.015Z,2.93
2023-05-18T02:20:08.055Z,2.90
2023-05-18T02:22:36.357Z,3.00
2023-05-18T02:25:07.565Z,2.93
2023-05-18T02:27:36.574Z,3.00
2023-05-18T02:30:05.691Z,2.97
2023-05-18T02:32:33.284Z,2.90
2023-05-18T02:35:03.606Z,2.90
2023-05-18T02:37:34.378Z,3.00
2023-05-18T02:40:01.588Z,3.00
2023-05-18T02:42:30.110Z,3.00
2023-05-18T02:44:57.669Z,2.90
2023-05-18T02:47:25.438Z,2.97
2023-05-18T02:49:53.234Z,3.07
2023-05-18T02:52:20.261Z,2.97
2023-05-18T02:54:47.329Z,3.00
2023-05-18T02:57:21.433Z,2.83
2023-05-18T02:59:59.420Z,3.00
2023-05-18T03:02:27.712Z,2.90
2023-05-18T03:04:57.390Z,2.97
2023-05-18T03:07:24.845Z,3.00
2023-05-18T03:09:52.318Z,2.90
2023-05-18T03:12:19.406Z,3.03
2023-05-18T03:14:47.161Z,3.00
2023-05-18T03:17:14.905Z,3.00
2023-05-18T03:19:42.467Z,2.93
2023-05-18T03:22:09.896Z,2.97
2023-05-18T03:24:40.159Z,2.90
2023-05-18T03:27:12.914Z,2.93
2023-05-18T03:29:40.436Z,2.97
2023-05-18T03:32:07.997Z,2.97
2023-05-18T03:34:37.057Z,3.13
2023-05-18T03:37:04.404Z,3.00
2023-05-18T03:39:33.332Z,2.93
2023-05-18T03:42:00.822Z,3.03
2023-05-18T03:44:28.079Z,3.10
2023-05-18T03:46:55.804Z,3.00
2023-05-18T03:49:23.346Z,3.03
2023-05-18T03:51:54.164Z,3.00
2023-05-18T03:54:22.409Z,2.97
2023-05-18T03:56:49.500Z,2.93
2023-05-18T03:59:17.460Z,2.97
2023-05-18T04:01:44.606Z,2.97
2023-05-18T04:04:18.326Z,3.00
2023-05-18T04:06:46.678Z,3.07
2023-05-18T04:09:17.078Z,3.00
2023-05-18T04:11:45.053Z,3.00
2023-05-18T04:14:14.039Z,3.00
2023-05-18T04:16:42.842Z,3.00
2023-05-18T04:19:10.447Z,2.90
2023-05-18T04:21:37.648Z,2.93
2023-05-18T04:24:07.060Z,2.90
2023-05-18T04:26:36.382Z,2.93
2023-05-18T04:29:03.797Z,2.90
2023-05-18T04:31:31.026Z,2.87
2023-05-18T04:34:00.405Z,2.87
2023-05-18T04:36:30.748Z,2.90
2023-05-18T04:39:03.408Z,2.90
2023-05-18T04:41:33.994Z,2.90
2023-05-18T04:44:01.856Z,2.90
2023-05-18T04:46:29.721Z,2.87
2023-05-18T04:48:58.004Z,2.80
2023-05-18T04:51:25.826Z,2.77
2023-05-18T04:53:55.598Z,2.90
2023-05-18T04:56:23.139Z,2.73
2023-05-18T04:58:50.474Z,2.83
2023-05-18T05:01:18.917Z,2.80
2023-05-18T05:03:46.137Z,2.80
2023-05-18T05:06:14.017Z,2.87
2023-05-18T05:08:41.254Z,2.90
2023-05-18T05:11:08.333Z,2.80
2023-05-18T05:13:36.446Z,2.70
2023-05-18T05:16:04.056Z,2.70
2023-05-18T05:18:31.237Z,2.77
2023-05-18T05:20:59.396Z,2.87
2023-05-18T05:23:27.322Z,2.70
2023-05-18T05:25:55.872Z,2.80
2023-05-18T05:28:23.187Z,2.70
2023-05-18T05:30:50.261Z,2.70
2023-05-18T05:33:18.543Z,2.70
2023-05-18T05:35:45.752Z,2.80
2023-05-18T05:38:13.155Z,2.63
2023-05-18T05:40:40.715Z,2.60
2023-05-18T05:43:09.147Z,2.80
2023-05-18T05:45:36.563Z,2.60
2023-05-18T05:48:11.065Z,2.60
2023-05-18T05:50:39.813Z,2.60
2023-05-18T05:53:06.986Z,2.60
2023-05-18T05:55:41.180Z,2.63
2023-05-18T05:58:12.484Z,2.60
2023-05-18T06:00:41.681Z,2.63
2023-05-18T06:03:09.287Z,2.67
2023-05-18T06:05:40.113Z,2.70
2023-05-18T06:08:09.582Z,2.60
2023-05-18T06:10:39.028Z,2.63
2023-05-18T06:13:07.241Z,2.80
2023-05-18T06:15:41.706Z,2.80
2023-05-18T06:18:09.923Z,2.70
2023-05-18T06:20:39.879Z,2.70
2023-05-18T06:23:07.491Z,2.70
2023-05-18T06:25:53.349Z,2.70
2023-05-18T06:28:29.784Z,3.00
2023-05-18T06:31:28.221Z,3.00
2023-05-18T06:34:23.186Z,2.90
2023-05-18T06:36:51.351Z,2.90
2023-05-18T06:39:18.446Z,3.00
2023-05-18T06:41:45.718Z,2.80
2023-05-18T06:44:20.590Z,2.70
2023-05-18T06:47:06.448Z,2.93
2023-05-18T06:49:34.844Z,2.57
2023-05-18T06:52:02.019Z,2.70
2023-05-18T06:54:30.578Z,2.53
2023-05-18T06:56:58.075Z,2.50
2023-05-18T06:59:25.574Z,2.50
2023-05-18T07:01:53.062Z,2.50
2023-05-18T07:04:21.119Z,2.30
2023-05-18T07:06:48.904Z,2.30
2023-05-18T07:09:17.271Z,2.27
2023-05-18T07:11:45.413Z,2.23
2023-05-18T07:14:12.436Z,2.23
2023-05-18T07:16:39.610Z,2.23
2023-05-18T07:19:06.749Z,2.40
2023-05-18T07:21:34.429Z,2.40
2023-05-18T07:24:01.925Z,2.30
2023-05-18T07:26:29.666Z,2.20
2023-05-18T07:28:56.805Z,2.40
2023-05-18T07:31:23.905Z,2.10
2023-05-18T07:33:51.038Z,2.37
2023-05-18T07:36:18.115Z,2.50
2023-05-18T07:38:45.169Z,2.30
2023-05-18T07:41:12.277Z,2.40
2023-05-18T07:43:39.310Z,2.37
2023-05-18T07:46:06.889Z,2.40
2023-05-18T07:48:34.478Z,2.20
2023-05-18T07:51:01.470Z,2.20
2023-05-18T07:53:28.682Z,2.00
2023-05-18T07:55:55.777Z,2.10
2023-05-18T07:58:23.290Z,2.10
2023-05-18T08:03:41.320Z,2.10
2023-05-18T08:06:08.949Z,2.03
2023-05-18T08:08:37.826Z,1.90
2023-05-18T08:11:05.752Z,1.90
2023-05-18T08:13:34.184Z,1.90
2023-05-18T08:16:11.057Z,2.00
2023-05-18T08:18:39.613Z,1.97
2023-05-18T08:21:10.527Z,1.80
2023-05-18T08:23:38.713Z,1.77
2023-05-18T08:26:06.291Z,1.70
2023-05-18T08:28:33.808Z,1.73
2023-05-18T08:31:00.805Z,1.80
2023-05-18T08:33:28.363Z,1.80
2023-05-18T08:35:56.578Z,1.67
2023-05-18T08:38:24.120Z,1.90
2023-05-18T08:41:26.815Z,1.70
2023-05-18T08:44:09.916Z,1.70
2023-05-18T08:46:47.124Z,1.70
2023-05-18T08:49:20.329Z,1.70
2023-05-18T08:51:59.139Z,1.60
2023-05-18T08:54:27.803Z,1.60
2023-05-18T08:56:56.938Z,1.60
2023-05-18T08:59:31.458Z,1.63
2023-05-18T09:01:59.135Z,1.60
2023-05-18T09:04:27.823Z,1.60
2023-05-18T09:06:56.434Z,1.60
2023-05-18T09:09:25.145Z,1.60
2023-05-18T09:11:52.935Z,1.70
2023-05-18T09:14:25.627Z,1.70
2023-05-18T09:16:54.071Z,1.60
2023-05-18T09:19:24.738Z,1.70
2023-05-18T09:21:52.530Z,1.60
2023-05-18T09:24:23.770Z,1.67
2023-05-18T09:26:52.163Z,1.60
2023-05-18T09:29:21.469Z,1.60
2023-05-18T09:31:49.247Z,1.50
2023-05-18T09:34:19.273Z,1.60
2023-05-18T09:36:52.908Z,1.47
2023-05-18T09:39:20.895Z,1.70
2023-05-18T09:41:57.978Z,1.80
2023-05-18T09:44:35.495Z,2.00
2023-05-18T09:47:09.804Z,1.70
2023-05-18T09:49:37.684Z,1.60
2023-05-18T09:52:09.144Z,1.70
2023-05-18T09:54:37.680Z,1.70
2023-05-18T09:57:10.932Z,1.97
2023-05-18T09:59:39.105Z,2.40
2023-05-18T10:02:08.659Z,2.17
2023-05-18T10:04:44.907Z,2.20
2023-05-18T10:07:15.033Z,1.80
2023-05-18T10:09:45.163Z,1.90
2023-05-18T10:12:15.587Z,2.00
2023-05-18T10:14:45.913Z,2.23
2023-05-18T10:17:17.103Z,2.00
2023-05-18T10:19:46.652Z,1.73
2023-05-18T10:22:18.183Z,1.90
2023-05-18T10:24:52.556Z,1.90
2023-05-18T10:27:28.233Z,1.83
2023-05-18T10:29:59.249Z,1.63
2023-05-18T10:32:31.241Z,1.70
2023-05-18T10:35:00.741Z,1.57
2023-05-18T10:37:31.845Z,1.80
2023-05-18T10:40:01.789Z,1.87
2023-05-18T10:42:31.315Z,1.73
2023-05-18T10:44:58.481Z,1.50
2023-05-18T10:47:27.698Z,1.50
2023-05-18T10:49:55.635Z,1.70
2023-05-18T10:52:31.337Z,1.70
2023-05-18T10:55:00.583Z,1.70
2023-05-18T10:58:02.468Z,1.60
2023-05-18T11:00:34.590Z,1.47
2023-05-18T11:03:04.932Z,1.47
2023-05-18T11:05:32.266Z,1.50
2023-05-18T11:08:05.278Z,1.50
2023-05-18T11:10:46.983Z,1.60
2023-05-18T11:13:15.714Z,2.10
2023-05-18T11:15:54.993Z,1.93
2023-05-18T11:18:36.684Z,1.80
2023-05-18T11:21:04.831Z,1.70
2023-05-18T11:23:33.094Z,1.80
2023-05-18T11:26:04.690Z,2.10
2023-05-18T11:28:33.531Z,2.20
2023-05-18T11:31:01.468Z,2.17
2023-05-18T11:33:30.949Z,2.07
2023-05-18T11:36:15.438Z,2.10
2023-05-18T11:39:07.008Z,2.30
2023-05-18T11:41:46.799Z,2.30
2023-05-18T11:44:21.039Z,2.53
2023-05-18T11:47:18.629Z,2.70
2023-05-18T11:49:48.805Z,2.37
2023-05-18T11:52:22.324Z,2.30
2023-05-18T11:55:00.783Z,2.40
2023-05-18T11:57:52.228Z,2.10
2023-05-18T12:00:20.884Z,1.93
2023-05-18T12:02:49.262Z,1.93
2023-05-18T12:05:17.315Z,2.30
2023-05-18T12:07:45.404Z,2.00
2023-05-18T12:10:14.974Z,1.90
2023-05-18T12:12:43.165Z,1.73
2023-05-18T12:15:12.026Z,2.20
2023-05-18T12:17:50.484Z,2.10
2023-05-18T12:20:20.516Z,2.07
2023-05-18T12:22:53.525Z,2.13
2023-05-18T12:25:24.031Z,1.83
2023-05-18T12:27:53.650Z,2.30
2023-05-18T12:30:23.956Z,1.90
2023-05-18T12:32:57.087Z,1.90
2023-05-18T12:35:27.280Z,1.97
2023-05-18T12:37:57.910Z,2.10
2023-05-18T12:40:25.938Z,2.30
2023-05-18T12:43:01.218Z,2.17
2023-05-18T12:45:32.341Z,2.10
2023-05-18T12:48:07.011Z,1.80
2023-05-18T12:50:35.411Z,2.17
2023-05-18T12:53:02.890Z,2.30
2023-05-18T12:55:35.186Z,2.00
2023-05-18T12:58:15.714Z,1.90
2023-05-18T13:00:48.894Z,2.07
2023-05-18T13:03:22.027Z,1.80
2023-05-18T13:06:05.968Z,2.10
2023-05-18T13:08:35.499Z,2.00
2023-05-18T13:13:39.758Z,2.30
2023-05-18T13:16:16.578Z,2.00
2023-05-18T13:18:47.392Z,2.20
2023-05-18T13:21:15.061Z,2.80
2023-05-18T13:23:43.167Z,2.47
2023-05-18T13:26:10.735Z,2.07
2023-05-18T13:28:38.149Z,2.00
2023-05-18T13:31:05.567Z,2.10
2023-05-18T13:33:33.201Z,2.73
2023-05-18T13:36:00.866Z,1.80
2023-05-18T13:38:28.295Z,1.90
2023-05-18T13:40:56.284Z,2.00
2023-05-18T13:43:23.821Z,2.50
2023-05-18T13:45:51.031Z,2.10
2023-05-18T13:48:18.874Z,1.97
2023-05-18T13:50:46.259Z,1.90
2023-05-18T13:53:13.287Z,1.90
2023-05-18T13:55:41.386Z,1.97
2023-05-18T13:58:08.553Z,2.60
2023-05-18T14:00:36.790Z,2.30
2023-05-18T14:03:04.853Z,2.40
2023-05-18T14:05:32.637Z,2.23
2023-05-18T14:08:00.166Z,2.23
2023-05-18T14:10:27.650Z,2.30
2023-05-18T14:12:55.168Z,2.13
2023-05-18T14:15:23.295Z,2.00
2023-05-18T14:17:51.039Z,2.03
2023-05-18T14:20:19.612Z,2.00
2023-05-18T14:22:47.221Z,2.00
2023-05-18T14:25:14.224Z,2.00
2023-05-18T14:27:41.687Z,1.90
2023-05-18T14:30:09.219Z,2.10
2023-05-18T14:32:36.308Z,1.97
2023-05-18T14:35:03.829Z,2.00
2023-05-18T14:37:30.831Z,2.10
2023-05-18T14:39:58.295Z,2.00
2023-05-18T14:42:25.363Z,1.90
2023-05-18T14:44:52.391Z,2.00
2023-05-18T14:47:19.911Z,2.10
2023-05-18T14:49:47.417Z,2.30
2023-05-18T14:52:14.978Z,2.00
2023-05-18T14:54:42.891Z,2.03
2023-05-18T14:57:09.962Z,1.83
2023-05-18T14:59:36.980Z,2.00
2023-05-18T15:02:04.610Z,2.10
2023-05-18T15:04:31.668Z,1.80
2023-05-18T15:06:59.111Z,1.97
2023-05-18T15:09:27.112Z,1.90
2023-05-18T15:11:54.715Z,2.00
2023-05-18T15:14:22.308Z,2.00
2023-05-18T15:16:49.743Z,1.97
2023-05-18T15:19:17.373Z,2.00
2023-05-18T15:21:45.028Z,1.90
2023-05-18T15:24:12.269Z,1.87
2023-05-18T15:26:39.861Z,1.90
2023-05-18T15:29:07.405Z,1.80
2023-05-18T15:31:36.819Z,1.90
2023-05-18T15:34:04.325Z,1.90
2023-05-18T15:36:32.214Z,1.90
2023-05-18T15:39:00.117Z,1.90
2023-05-18T15:41:32.875Z,1.90
2023-05-18T15:44:01.800Z,1.90
2023-05-18T15:46:35.449Z,1.83
2023-05-18T15:49:03.900Z,1.90
2023-05-18T15:51:31.456Z,1.80
2023-05-18T15:53:59.110Z,1.90
2023-05-18T15:56:27.155Z,1.90
2023-05-18T15:58:54.674Z,1.87
2023-05-18T16:01:22.208Z,1.83
2023-05-18T16:03:49.444Z,1.90
2023-05-18T16:06:17.487Z,1.90
2023-05-18T16:08:46.598Z,1.90
2023-05-18T16:11:14.169Z,1.90
2023-05-18T16:13:41.792Z,1.87
2023-05-18T16:16:10.304Z,1.90
2023-05-18T16:18:38.196Z,1.87
2023-05-18T16:21:05.712Z,1.90
2023-05-18T16:23:33.252Z,1.90
2023-05-18T16:26:01.376Z,1.90
2023-05-18T16:28:28.894Z,2.00
2023-05-18T16:30:56.365Z,2.10
2023-05-18T16:33:25.922Z,2.13
2023-05-18T16:35:54.810Z,2.23
2023-05-18T16:38:22.308Z,2.20
2023-05-18T16:40:49.532Z,2.10
2023-05-18T16:43:17.269Z,2.13
2023-05-18T16:45:45.405Z,2.10
2023-05-18T16:48:12.858Z,2.17
2023-05-18T16:50:40.424Z,2.10
2023-05-18T16:53:07.892Z,2.10
2023-05-18T16:55:35.042Z,2.07
2023-05-18T16:58:02.513Z,2.10
2023-05-18T17:00:30.233Z,2.07
2023-05-18T17:02:58.963Z,2.10
2023-05-18T17:05:26.753Z,2.10
2023-05-18T17:07:54.171Z,2.10
2023-05-18T17:10:21.842Z,2.17
2023-05-18T17:12:48.943Z,2.30
2023-05-18T17:15:16.573Z,2.27
2023-05-18T17:17:44.545Z,2.20
2023-05-18T17:20:11.998Z,2.30
2023-05-18T17:22:39.608Z,2.30
2023-05-18T17:25:08.288Z,2.30
2023-05-18T17:27:35.748Z,2.43
2023-05-18T17:30:02.934Z,2.40
2023-05-18T17:32:29.965Z,2.37
2023-05-18T17:34:57.600Z,2.50
2023-05-18T17:37:25.171Z,2.33
2023-05-18T17:39:52.696Z,2.40
2023-05-18T17:42:20.943Z,2.40
2023-05-18T17:44:48.568Z,2.37
2023-05-18T17:47:17.357Z,2.33
2023-05-18T17:49:44.576Z,2.50
2023-05-18T17:52:12.407Z,2.30
2023-05-18T17:54:39.947Z,2.40
2023-05-18T17:57:07.487Z,2.30
2023-05-18T17:59:36.689Z,2.37
2023-05-18T18:02:05.188Z,2.50
2023-05-18T18:04:32.635Z,2.30
2023-05-18T18:07:01.583Z,2.47
2023-05-18T18:09:29.274Z,2.30
2023-05-18T18:12:00.516Z,2.40
2023-05-18T18:14:27.601Z,2.20
2023-05-18T18:16:56.671Z,2.30
2023-05-18T18:19:25.578Z,2.30
2023-05-18T18:21:53.749Z,2.30
2023-05-18T18:24:23.325Z,2.30
2023-05-18T18:26:55.760Z,2.30
2023-05-18T18:29:23.305Z,2.30
2023-05-18T18:31:50.821Z,2.20
2023-05-18T18:34:17.955Z,2.30
2023-05-18T18:36:47.632Z,2.20
2023-05-18T18:39:15.456Z,2.40
2023-05-18T18:41:43.016Z,2.20
2023-05-18T18:44:11.130Z,2.20
2023-05-18T18:46:38.317Z,2.27
2023-05-18T18:49:05.913Z,2.20
2023-05-18T18:51:33.430Z,2.27
2023-05-18T18:54:01.179Z,2.30
2023-05-18T18:56:28.738Z,2.30
2023-05-18T18:58:56.195Z,2.30
2023-05-18T19:01:23.321Z,2.37
2023-05-18T19:03:52.569Z,2.40
2023-05-18T19:06:20.145Z,2.47
2023-05-18T19:08:52.037Z,2.40
2023-05-18T19:11:21.802Z,2.50
2023-05-18T19:13:49.292Z,2.50
2023-05-18T19:16:17.622Z,2.40
2023-05-18T19:18:45.374Z,2.43
2023-05-18T19:21:13.014Z,2.50
2023-05-18T19:23:40.735Z,2.50
2023-05-18T19:26:08.737Z,2.67
2023-05-18T19:28:35.871Z,2.50
2023-05-18T19:31:03.980Z,2.50
2023-05-18T19:33:31.592Z,2.50
2023-05-18T19:35:59.015Z,2.60
2023-05-18T19:38:26.198Z,2.50
2023-05-18T19:40:53.655Z,2.50
2023-05-18T19:43:21.137Z,2.50
2023-05-18T19:45:50.050Z,2.57
2023-05-18T19:48:17.904Z,2.60
2023-05-18T19:50:45.439Z,2.80
2023-05-18T19:53:13.134Z,2.70
2023-05-18T19:55:40.426Z,2.63
2023-05-18T19:58:08.020Z,2.60
2023-05-18T20:00:37.852Z,2.70
2023-05-18T20:03:05.968Z,2.70
2023-05-18T20:05:33.501Z,2.97
2023-05-18T20:08:02.758Z,2.73
2023-05-18T20:10:30.348Z,2.73
2023-05-18T20:12:58.100Z,2.57
2023-05-18T20:15:26.037Z,2.60
2023-05-18T20:17:53.386Z,2.70
2023-05-18T20:20:20.784Z,2.80
2023-05-18T20:22:48.001Z,2.70
2023-05-18T20:25:15.681Z,2.60
2023-05-18T20:27:42.809Z,2.70
2023-05-18T20:30:10.559Z,2.63
2023-05-18T20:32:37.823Z,2.60
2023-05-18T20:35:05.660Z,2.60
2023-05-18T20:37:35.724Z,2.43
2023-05-18T20:40:09.018Z,2.50
2023-05-18T20:42:40.226Z,2.50
2023-05-18T20:45:09.809Z,2.60
2023-05-18T20:47:37.418Z,2.60
2023-05-18T20:50:05.351Z,2.50
2023-05-18T20:52:32.627Z,2.50
2023-05-18T20:55:00.432Z,2.60
2023-05-18T20:57:29.849Z,2.50
2023-05-18T20:59:57.523Z,2.60
2023-05-18T21:02:24.614Z,2.50
2023-05-18T21:04:52.426Z,2.53
2023-05-18T21:07:21.072Z,2.40
2023-05-18T21:09:48.595Z,2.60
2023-05-18T21:12:16.116Z,2.50
2023-05-18T21:14:43.701Z,2.50
2023-05-18T21:17:11.336Z,2.50
2023-05-18T21:19:38.808Z,2.50
2023-05-18T21:22:06.237Z,2.50
2023-05-18T21:24:33.340Z,2.50
2023-05-18T21:27:01.101Z,2.53
2023-05-18T21:29:28.553Z,2.40
2023-05-18T21:31:56.079Z,2.40
2023-05-18T21:34:23.695Z,2.47
2023-05-18T21:36:51.281Z,2.50
2023-05-18T21:39:18.789Z,2.60
2023-05-18T21:41:46.514Z,2.50
2023-05-18T21:44:14.386Z,2.50
2023-05-18T21:46:42.335Z,2.70
2023-05-18T21:49:09.454Z,2.60
2023-05-18T21:51:36.570Z,2.80
2023-05-18T21:54:04.451Z,2.63
2023-05-18T21:56:34.543Z,2.57
2023-05-18T21:59:02.587Z,2.60
2023-05-18T22:01:30.089Z,2.63
2023-05-18T22:03:57.955Z,2.53
2023-05-18T22:06:25.584Z,2.53
2023-05-18T22:08:53.180Z,2.50
2023-05-18T22:11:21.774Z,2.70
2023-05-18T22:13:49.333Z,2.50
2023-05-18T22:16:16.825Z,2.67
2023-05-18T22:18:44.332Z,2.67
2023-05-18T22:21:11.797Z,2.70
2023-05-18T22:23:39.140Z,2.57
2023-05-18T22:26:07.019Z,2.67
2023-05-18T22:28:34.619Z,2.60
2023-05-18T22:31:02.090Z,2.50
2023-05-18T22:33:29.597Z,2.60
2023-05-18T22:35:56.760Z,2.57
2023-05-18T22:38:24.373Z,2.50
2023-05-18T22:40:53.881Z,2.43
2023-05-18T22:43:22.106Z,2.47
2023-05-18T22:45:49.834Z,2.43
2023-05-18T22:48:16.975Z,2.50
2023-05-18T22:50:44.083Z,2.47
2023-05-18T22:53:11.868Z,2.40
2023-05-18T22:55:39.385Z,2.43
2023-05-18T22:58:06.942Z,2.57
2023-05-18T23:00:34.411Z,2.60
2023-05-18T23:03:01.544Z,2.57
2023-05-18T23:05:28.784Z,2.50
2023-05-18T23:07:58.022Z,2.53
2023-05-18T23:10:26.327Z,2.47
2023-05-18T23:12:55.523Z,2.47
2023-05-18T23:15:23.112Z,2.60
2023-05-18T23:17:54.435Z,2.50
2023-05-18T23:20:25.581Z,2.50
2023-05-18T23:22:53.079Z,2.60
2023-05-18T23:25:21.310Z,2.53
2023-05-18T23:27:48.434Z,2.40
2023-05-18T23:30:15.444Z,2.50
2023-05-18T23:32:43.479Z,2.60
2023-05-18T23:35:13.866Z,2.50
2023-05-18T23:37:42.878Z,2.53
2023-05-18T23:40:12.401Z,2.57
2023-05-18T23:42:40.221Z,2.60
2023-05-18T23:45:08.759Z,2.57
2023-05-18T23:47:36.730Z,2.63
2023-05-18T23:50:05.228Z,2.60
2023-05-18T23:52:34.447Z,2.53
2023-05-18T23:55:04.004Z,2.60
2023-05-18T23:57:31.615Z,2.60
2023-05-18T23:59:59.346Z,2.60
